Time;durP1;ratioP1;P1;durP2;ratioP2;P2;SDS_P1;SDS_P2;PMS_P1;PMS_P2;Temp;Humidity;BMP_temperature;BMP_pressure;BME280_temperature;BME280_humidity;BME280_pressure;Samples;Min_cycle;Max_cycle;Signal;HPM_P1;HPM_P2
2021/03/16 00:01:58;;;;;;;3.88;2.10;;;17.90;52.30;;;;;;4899861;29;20212;-66
2021/03/16 00:04:24;;;;;;;3.42;1.92;;;17.90;52.30;;;;;;4900208;29;20189;-64
2021/03/16 00:06:49;;;;;;;5.78;2.20;;;17.90;52.30;;;;;;4899258;29;20226;-63
2021/03/16 00:09:15;;;;;;;5.03;2.15;;;17.90;52.30;;;;;;4898717;29;20216;-63
2021/03/16 00:11:40;;;;;;;3.83;1.73;;;17.90;52.30;;;;;;4883433;29;20196;-63
2021/03/16 00:14:06;;;;;;;4.47;2.30;;;17.90;52.90;;;;;;4900083;29;20176;-63
2021/03/16 00:16:32;;;;;;;4.68;2.15;;;17.80;52.30;;;;;;4898421;29;20182;-63
2021/03/16 00:18:57;;;;;;;4.00;1.88;;;17.80;52.20;;;;;;4899089;29;20172;-63
2021/03/16 00:21:23;;;;;;;4.43;2.47;;;17.80;52.20;;;;;;4900021;29;20208;-72
2021/03/16 00:23:48;;;;;;;3.95;1.98;;;17.80;52.20;;;;;;4899486;29;20633;-63
2021/03/16 00:26:14;;;;;;;4.32;2.22;;;17.80;52.30;;;;;;4883431;29;20189;-72
2021/03/16 00:28:40;;;;;;;3.53;1.83;;;17.80;52.30;;;;;;4899319;29;20196;-72
2021/03/16 00:31:05;;;;;;;5.30;2.08;;;17.80;52.30;;;;;;4898277;29;20613;-65
2021/03/16 00:33:31;;;;;;;3.95;1.48;;;17.70;52.90;;;;;;4898512;29;20704;-67
2021/03/16 00:35:56;;;;;;;4.28;2.08;;;17.70;52.30;;;;;;4898887;29;20184;-63
2021/03/16 00:38:22;;;;;;;4.43;1.95;;;17.70;52.30;;;;;;4897886;29;20212;-70
2021/03/16 00:40:49;;;;;;;3.13;1.88;;;17.70;52.30;;;;;;4900009;29;20256;-63
2021/03/16 00:43:15;;;;;;;4.70;2.05;;;17.70;52.30;;;;;;4882307;29;20212;-66
2021/03/16 00:45:40;;;;;;;2.95;1.63;;;17.70;52.30;;;;;;4899652;29;20259;-72
2021/03/16 00:48:07;;;;;;;5.13;2.00;;;17.70;53.00;;;;;;4898482;29;20591;-73
2021/03/16 00:50:32;;;;;;;2.65;1.60;;;17.70;52.30;;;;;;4898584;29;20691;-73
2021/03/16 00:52:58;;;;;;;4.40;2.13;;;17.60;52.30;;;;;;4898454;29;20177;-75
2021/03/16 00:55:24;;;;;;;3.25;1.80;;;17.60;53.00;;;;;;4882612;29;20180;-63
2021/03/16 00:57:49;;;;;;;5.78;2.35;;;17.60;52.30;;;;;;4899051;29;20565;-72
2021/03/16 01:00:16;;;;;;;3.42;1.80;;;17.60;52.30;;;;;;4898502;29;20215;-63
2021/03/16 01:02:41;;;;;;;3.70;2.10;;;17.60;52.30;;;;;;4899118;29;20184;-64
2021/03/16 01:05:07;;;;;;;3.67;1.70;;;17.60;52.30;;;;;;4898776;29;20901;-70
2021/03/16 01:07:33;;;;;;;3.80;1.58;;;17.60;52.30;;;;;;4898099;29;20267;-70
2021/03/16 01:09:58;;;;;;;4.30;1.73;;;17.60;52.30;;;;;;4899453;29;20637;-67
2021/03/16 01:12:24;;;;;;;4.43;2.08;;;17.60;52.30;;;;;;4881821;29;20169;-72
2021/03/16 01:14:50;;;;;;;5.00;2.40;;;17.60;52.30;;;;;;4899161;29;20199;-64
2021/03/16 01:17:15;;;;;;;3.05;1.60;;;17.50;52.30;;;;;;4899330;29;20207;-66
2021/03/16 01:19:41;;;;;;;3.72;1.77;;;17.50;52.30;;;;;;4898365;29;20168;-73
2021/03/16 01:22:06;;;;;;;3.72;1.70;;;17.50;52.30;;;;;;4899037;29;20586;-72
2021/03/16 01:24:32;;;;;;;4.70;1.85;;;17.50;52.30;;;;;;4898776;29;20183;-72
2021/03/16 01:26:57;;;;;;;3.90;1.52;;;17.50;52.30;;;;;;4898474;29;20176;-63
2021/03/16 01:29:23;;;;;;;6.88;1.85;;;17.50;52.30;;;;;;4897688;29;20212;-62
2021/03/16 01:31:48;;;;;;;2.35;1.70;;;17.50;52.30;;;;;;4899030;29;20648;-70
2021/03/16 01:34:14;;;;;;;3.40;1.30;;;17.50;52.30;;;;;;4897152;29;20177;-72
2021/03/16 01:36:40;;;;;;;3.38;1.80;;;17.50;52.40;;;;;;4898665;29;20317;-64
2021/03/16 01:39:05;;;;;;;4.15;1.63;;;17.50;52.30;;;;;;4898002;29;20195;-63
2021/03/16 01:41:31;;;;;;;2.03;1.67;;;17.50;52.30;;;;;;4881104;29;20192;-72
2021/03/16 01:43:57;;;;;;;5.05;2.08;;;17.40;52.90;;;;;;4897602;29;20185;-66
2021/03/16 01:46:22;;;;;;;2.67;1.48;;;17.40;52.30;;;;;;4881761;29;20180;-65
2021/03/16 01:48:48;;;;;;;4.55;2.15;;;17.40;52.40;;;;;;4896716;29;20562;-63
2021/03/16 01:51:13;;;;;;;2.15;1.38;;;17.40;52.30;;;;;;4897148;29;20284;-63
2021/03/16 01:53:42;;;;;;;4.20;1.60;;;17.40;52.30;;;;;;4896511;29;20659;-63
2021/03/16 01:56:08;;;;;;;3.25;1.30;;;17.40;52.30;;;;;;4897450;29;20209;-71
2021/03/16 01:58:33;;;;;;;3.20;1.67;;;17.40;52.30;;;;;;4881634;29;20180;-73
2021/03/16 02:00:59;;;;;;;2.13;1.48;;;17.40;52.30;;;;;;4896823;29;20177;-71
2021/03/16 02:03:25;;;;;;;3.50;1.50;;;17.40;52.40;;;;;;4897083;29;20576;-72
2021/03/16 02:05:51;;;;;;;2.38;1.40;;;17.40;52.30;;;;;;4897061;29;20215;-72
2021/03/16 02:08:31;;;;;;;3.10;1.45;;;17.40;52.30;;;;;;4897731;29;20204;-64
2021/03/16 02:10:57;;;;;;;3.63;1.65;;;17.40;52.30;;;;;;4897075;29;20644;-64
2021/03/16 02:14:03;;;;;;;3.35;1.70;;;17.40;52.30;;;;;;4898069;29;20200;-64
2021/03/16 02:16:40;;;;;;;3.00;1.55;;;17.30;52.30;;;;;;4821644;29;20221;-63
2021/03/16 02:19:08;;;;;;;2.42;1.40;;;17.30;52.30;;;;;;4871869;29;20191;-72
2021/03/16 02:21:34;;;;;;;3.28;1.30;;;17.30;52.30;;;;;;4896845;29;20177;-63
2021/03/16 02:24:09;;;;;;;2.22;1.35;;;17.30;52.30;;;;;;4880556;29;20177;-63
2021/03/16 02:26:53;;;;;;;4.50;1.98;;;17.30;52.30;;;;;;4881040;29;20557;-72
2021/03/16 02:29:24;;;;;;;2.35;1.45;;;17.30;52.30;;;;;;4896058;29;20262;-63
2021/03/16 02:32:03;;;;;;;4.25;1.30;;;17.30;52.30;;;;;;4896965;29;20169;-71
2021/03/16 02:34:29;;;;;;;2.47;1.33;;;17.20;52.20;;;;;;4896680;29;20251;-63
2021/03/16 02:36:55;;;;;;;3.47;1.63;;;17.20;52.30;;;;;;4896054;29;20680;-71
2021/03/16 02:39:20;;;;;;;3.35;1.52;;;17.20;52.20;;;;;;4880710;29;20177;-62
2021/03/16 02:41:48;;;;;;;4.35;1.58;;;17.20;52.20;;;;;;4881174;29;20176;-63
2021/03/16 02:44:13;;;;;;;2.92;1.40;;;17.30;52.30;;;;;;4880330;29;20200;-64
2021/03/16 02:46:43;;;;;;;4.07;1.48;;;17.20;52.30;;;;;;4880695;29;20223;-73
2021/03/16 02:49:09;;;;;;;2.28;1.30;;;17.20;52.30;;;;;;4896460;29;20212;-72
2021/03/16 02:51:36;;;;;;;2.45;1.40;;;17.20;52.20;;;;;;4879692;29;20220;-63
2021/03/16 02:54:02;;;;;;;3.03;1.38;;;17.20;52.20;;;;;;4896383;29;20188;-63
2021/03/16 02:56:28;;;;;;;2.47;1.23;;;17.20;52.30;;;;;;4896240;29;20178;-68
2021/03/16 02:58:53;;;;;;;2.10;1.30;;;17.20;52.30;;;;;;4880428;29;20278;-69
2021/03/16 03:01:19;;;;;;;2.90;1.52;;;17.20;52.30;;;;;;4880646;29;20224;-64
2021/03/16 03:03:46;;;;;;;2.65;1.63;;;17.10;52.20;;;;;;4880795;29;20271;-72
2021/03/16 03:06:15;;;;;;;3.00;1.40;;;17.10;52.30;;;;;;4880328;29;20585;-71
2021/03/16 03:08:44;;;;;;;1.77;1.13;;;17.10;52.30;;;;;;4880166;29;20243;-70
2021/03/16 03:11:10;;;;;;;3.30;1.20;;;17.10;52.20;;;;;;4879937;29;20514;-63
2021/03/16 03:13:36;;;;;;;2.65;1.58;;;17.10;52.30;;;;;;4896098;29;20183;-64
2021/03/16 03:16:02;;;;;;;2.30;1.20;;;17.10;52.30;;;;;;4896192;29;20176;-72
2021/03/16 03:18:27;;;;;;;3.88;1.73;;;17.10;52.20;;;;;;4895554;29;20176;-63
2021/03/16 03:20:53;;;;;;;3.00;1.65;;;17.10;52.90;;;;;;4896325;29;20173;-63
2021/03/16 03:23:23;;;;;;;3.58;1.70;;;17.10;52.20;;;;;;4896034;29;20534;-63
2021/03/16 03:26:24;;;;;;;2.72;1.52;;;17.10;52.20;;;;;;4895759;29;20165;-63
2021/03/16 03:28:49;;;;;;;1.92;1.00;;;17.10;52.30;;;;;;4877693;29;20271;-63
2021/03/16 03:31:15;;;;;;;2.65;1.23;;;17.10;52.30;;;;;;4896127;29;20664;-72
2021/03/16 03:33:41;;;;;;;1.38;1.00;;;17.00;52.20;;;;;;4895307;29;20184;-72
2021/03/16 03:36:07;;;;;;;2.90;1.33;;;17.10;52.30;;;;;;4864820;29;20212;-62
2021/03/16 03:38:32;;;;;;;2.05;1.17;;;17.00;52.20;;;;;;4895912;29;20187;-71
2021/03/16 03:40:58;;;;;;;4.07;1.75;;;17.00;52.20;;;;;;4895440;29;20172;-63
2021/03/16 03:43:23;;;;;;;1.83;1.13;;;17.00;52.20;;;;;;4880149;29;20181;-72
2021/03/16 03:45:51;;;;;;;2.97;1.30;;;17.00;52.20;;;;;;4895979;29;20177;-64
2021/03/16 03:48:17;;;;;;;2.05;1.23;;;17.00;52.20;;;;;;4895480;29;20173;-63
2021/03/16 03:50:42;;;;;;;1.67;0.90;;;17.00;52.20;;;;;;4895601;29;20180;-63
2021/03/16 03:53:08;;;;;;;2.95;1.33;;;17.00;52.20;;;;;;4895413;29;20595;-63
2021/03/16 03:55:34;;;;;;;2.58;1.40;;;17.00;52.20;;;;;;4880123;29;20173;-71
2021/03/16 03:58:00;;;;;;;3.63;1.88;;;17.00;52.20;;;;;;4880403;29;20535;-67
2021/03/16 04:00:26;;;;;;;2.65;1.17;;;17.00;52.20;;;;;;4879521;29;20179;-68
2021/03/16 04:02:51;;;;;;;3.22;1.42;;;17.00;52.20;;;;;;4881726;29;20176;-72
2021/03/16 04:05:17;;;;;;;2.25;1.20;;;17.00;52.20;;;;;;4883825;29;20200;-64
2021/03/16 04:07:43;;;;;;;2.28;1.35;;;16.90;52.80;;;;;;4867338;29;20176;-64
2021/03/16 04:10:09;;;;;;;1.77;1.10;;;16.90;52.20;;;;;;4883595;29;20212;-63
2021/03/16 04:12:35;;;;;;;2.72;1.40;;;16.90;52.20;;;;;;4899094;29;20177;-70
2021/03/16 04:15:06;;;;;;;2.03;1.20;;;16.90;52.10;;;;;;4898601;29;20204;-71
2021/03/16 04:17:32;;;;;;;3.00;1.25;;;16.90;52.10;;;;;;4900290;29;20261;-72
2021/03/16 04:19:58;;;;;;;2.58;1.52;;;16.90;52.70;;;;;;4899084;29;20629;-68
2021/03/16 04:22:23;;;;;;;3.00;1.50;;;16.90;52.20;;;;;;4898247;29;20177;-63
2021/03/16 04:24:50;;;;;;;3.35;1.77;;;16.90;52.10;;;;;;4900047;29;20180;-64
2021/03/16 04:27:16;;;;;;;2.58;1.05;;;16.90;52.10;;;;;;4883415;29;20259;-71
2021/03/16 04:29:41;;;;;;;2.47;1.08;;;16.90;52.10;;;;;;4882443;29;20340;-62
2021/03/16 04:32:07;;;;;;;1.77;1.10;;;16.90;52.10;;;;;;4899959;29;20179;-70
2021/03/16 04:34:32;;;;;;;2.50;1.10;;;16.90;52.10;;;;;;4882949;29;20181;-69
2021/03/16 04:36:58;;;;;;;2.65;1.10;;;16.90;52.20;;;;;;4899277;29;20180;-62
2021/03/16 04:39:23;;;;;;;2.45;1.15;;;16.90;52.10;;;;;;4899661;29;20176;-70
2021/03/16 04:41:49;;;;;;;1.85;1.10;;;16.80;52.10;;;;;;4899895;29;20176;-63
2021/03/16 04:44:15;;;;;;;1.63;0.80;;;16.80;52.10;;;;;;4898092;29;20263;-63
2021/03/16 04:46:40;;;;;;;2.65;1.10;;;16.80;52.10;;;;;;4899865;29;20177;-71
2021/03/16 04:49:06;;;;;;;2.35;1.05;;;16.80;52.10;;;;;;4898664;29;20227;-63
2021/03/16 04:51:32;;;;;;;4.00;1.23;;;16.80;52.10;;;;;;4897603;29;20300;-69
2021/03/16 04:53:57;;;;;;;2.85;1.30;;;16.80;52.10;;;;;;4899483;29;20185;-72
2021/03/16 04:56:23;;;;;;;3.50;1.25;;;16.80;52.00;;;;;;4898793;29;20178;-63
2021/03/16 04:58:48;;;;;;;2.70;1.50;;;16.80;52.00;;;;;;4898484;29;20181;-70
2021/03/16 05:01:15;;;;;;;2.97;1.17;;;16.80;52.10;;;;;;4899735;29;20201;-64
2021/03/16 05:03:41;;;;;;;3.10;1.20;;;16.80;52.10;;;;;;4897549;29;20267;-70
2021/03/16 05:06:06;;;;;;;2.67;1.42;;;16.80;52.10;;;;;;4899693;29;20272;-63
2021/03/16 05:08:32;;;;;;;1.40;0.98;;;16.80;52.10;;;;;;4897891;29;20291;-63
2021/03/16 05:10:57;;;;;;;2.40;1.20;;;16.80;52.10;;;;;;4881963;29;20180;-70
2021/03/16 05:13:23;;;;;;;2.20;1.10;;;16.80;52.00;;;;;;4899124;29;20181;-62
2021/03/16 05:15:48;;;;;;;2.80;1.45;;;16.70;52.00;;;;;;4899076;29;20176;-64
2021/03/16 05:18:14;;;;;;;2.83;1.35;;;16.80;52.10;;;;;;4882032;29;20183;-72
2021/03/16 05:20:40;;;;;;;2.75;1.20;;;16.70;52.00;;;;;;4897838;29;20187;-63
2021/03/16 05:23:05;;;;;;;3.00;1.20;;;16.70;52.00;;;;;;4899026;29;20296;-62
2021/03/16 05:25:31;;;;;;;1.38;0.88;;;16.70;52.20;;;;;;4897131;29;20236;-63
2021/03/16 05:27:57;;;;;;;2.17;1.38;;;16.70;52.20;;;;;;4897917;29;20177;-62
2021/03/16 05:30:23;;;;;;;1.60;1.05;;;16.70;52.20;;;;;;4898788;29;20672;-63
2021/03/16 05:32:59;;;;;;;1.80;1.20;;;16.70;52.20;;;;;;4897430;29;20264;-63
2021/03/16 05:35:24;;;;;;;2.45;1.30;;;16.70;52.20;;;;;;4898750;29;20182;-70
2021/03/16 05:37:50;;;;;;;3.17;1.23;;;16.70;52.20;;;;;;4882087;29;20624;-63
2021/03/16 05:40:16;;;;;;;1.35;0.85;;;16.70;52.80;;;;;;4898206;29;20191;-67
2021/03/16 05:42:41;;;;;;;1.73;0.90;;;16.70;52.20;;;;;;4897531;29;20632;-72
2021/03/16 05:45:08;;;;;;;1.80;1.00;;;16.70;52.20;;;;;;4881872;29;20177;-66
2021/03/16 05:47:33;;;;;;;3.58;1.50;;;16.70;52.20;;;;;;4881199;29;20236;-72
2021/03/16 05:49:59;;;;;;;3.33;1.25;;;16.70;52.20;;;;;;4881866;29;20204;-62
2021/03/16 05:52:24;;;;;;;2.17;0.98;;;16.60;52.10;;;;;;4881439;29;20291;-62
2021/03/16 05:54:54;;;;;;;1.98;1.13;;;16.60;52.20;;;;;;4881188;29;20541;-72
2021/03/16 05:57:20;;;;;;;1.45;0.98;;;16.60;52.10;;;;;;4881507;29;20180;-62
2021/03/16 05:59:47;;;;;;;1.52;0.98;;;16.60;52.10;;;;;;4881259;29;20200;-70
2021/03/16 06:02:13;;;;;;;2.10;0.93;;;16.60;52.20;;;;;;4881664;29;20165;-74
2021/03/16 06:04:44;;;;;;;1.98;1.00;;;16.60;52.20;;;;;;4896867;29;20236;-74
2021/03/16 06:07:15;;;;;;;2.00;1.13;;;16.60;52.90;;;;;;4880973;29;20191;-65
2021/03/16 06:09:42;;;;;;;1.33;0.90;;;16.60;52.10;;;;;;4896717;29;20231;-64
2021/03/16 06:12:08;;;;;;;2.63;1.27;;;16.60;52.30;;;;;;4881456;29;20183;-64
2021/03/16 06:14:34;;;;;;;1.75;0.98;;;16.70;52.40;;;;;;4896201;29;20175;-74
2021/03/16 06:17:00;;;;;;;1.58;0.93;;;16.80;52.20;;;;;;4898234;29;20696;-73
2021/03/16 06:19:36;;;;;;;2.10;0.95;;;17.00;52.00;;;;;;4881178;29;20181;-63
2021/03/16 06:22:03;;;;;;;1.52;0.90;;;17.20;51.90;;;;;;4897437;29;20267;-72
2021/03/16 06:24:29;;;;;;;1.35;0.90;;;17.40;51.50;;;;;;4896585;29;20215;-69
2021/03/16 06:26:55;;;;;;;2.50;1.10;;;17.70;51.20;;;;;;4896373;29;20172;-63
2021/03/16 06:29:21;;;;;;;1.70;1.00;;;17.90;50.90;;;;;;4896993;29;20219;-63
2021/03/16 06:31:46;;;;;;;1.77;0.98;;;18.00;50.60;;;;;;4881227;29;20188;-63
2021/03/16 06:34:18;;;;;;;1.13;0.70;;;18.20;50.40;;;;;;4896684;29;20267;-71
2021/03/16 06:36:47;;;;;;;3.78;1.10;;;18.40;50.00;;;;;;4897288;29;20173;-71
2021/03/16 06:39:20;;;;;;;0.80;0.60;;;18.50;49.60;;;;;;4881147;29;20181;-71
2021/03/16 06:41:45;;;;;;;2.20;1.10;;;18.60;49.40;;;;;;4898008;29;20664;-71
2021/03/16 06:44:15;;;;;;;1.90;0.98;;;18.60;49.30;;;;;;4880186;29;20236;-71
2021/03/16 06:46:41;;;;;;;2.70;0.95;;;18.70;49.20;;;;;;4880895;29;20236;-73
2021/03/16 06:49:14;;;;;;;2.42;0.90;;;18.80;49.20;;;;;;4896915;29;20213;-64
2021/03/16 06:51:39;;;;;;;0.88;0.82;;;18.80;49.10;;;;;;4880584;29;20228;-64
2021/03/16 06:54:12;;;;;;;1.35;0.90;;;18.80;49.00;;;;;;4880778;29;20205;-74
2021/03/16 06:56:38;;;;;;;1.92;1.13;;;18.90;49.00;;;;;;4864560;29;20189;-64
2021/03/16 06:59:07;;;;;;;1.08;0.68;;;18.90;48.90;;;;;;4896424;29;20221;-68
2021/03/16 07:01:33;;;;;;;4.35;1.40;;;18.80;49.10;;;;;;4896067;29;20184;-64
2021/03/16 07:04:00;;;;;;;1.75;0.90;;;18.80;49.20;;;;;;4880104;29;20228;-70
2021/03/16 07:06:25;;;;;;;1.17;0.70;;;18.70;49.30;;;;;;4896285;29;20651;-72
2021/03/16 07:08:51;;;;;;;0.90;0.60;;;18.60;49.40;;;;;;4896297;29;20204;-65
2021/03/16 07:11:23;;;;;;;2.58;1.27;;;18.60;49.60;;;;;;4895777;29;20169;-70
2021/03/16 07:13:48;;;;;;;1.83;1.00;;;18.60;49.60;;;;;;4896191;29;20255;-65
2021/03/16 07:16:14;;;;;;;1.52;0.75;;;18.60;49.70;;;;;;4880865;29;20256;-73
2021/03/16 07:18:40;;;;;;;2.80;1.20;;;18.60;49.70;;;;;;4879680;29;20267;-64
2021/03/16 07:21:13;;;;;;;1.52;0.75;;;18.60;49.70;;;;;;4896161;29;20227;-64
2021/03/16 07:23:44;;;;;;;2.15;0.80;;;18.50;49.80;;;;;;4897127;29;20549;-64
2021/03/16 07:26:10;;;;;;;2.33;0.90;;;18.40;49.90;;;;;;4895549;29;20176;-68
2021/03/16 07:28:35;;;;;;;2.10;0.98;;;18.40;50.10;;;;;;4897040;29;20181;-63
2021/03/16 07:31:01;;;;;;;1.13;0.70;;;18.30;50.10;;;;;;4880445;29;20179;-68
2021/03/16 07:33:28;;;;;;;2.00;0.80;;;18.20;50.30;;;;;;4895106;29;20176;-64
2021/03/16 07:35:54;;;;;;;1.55;0.88;;;18.20;50.40;;;;;;4897317;29;20173;-71
2021/03/16 07:38:19;;;;;;;1.42;0.77;;;18.20;50.50;;;;;;4897357;29;20172;-69
2021/03/16 07:40:45;;;;;;;1.42;0.57;;;18.20;50.50;;;;;;4884251;29;20181;-72
2021/03/16 07:43:11;;;;;;;1.73;0.98;;;18.20;50.60;;;;;;4899660;29;20256;-68
2021/03/16 07:45:37;;;;;;;1.88;0.90;;;18.20;50.60;;;;;;4883088;29;20185;-73
2021/03/16 07:48:14;;;;;;;1.50;0.77;;;18.10;50.70;;;;;;4899680;29;20601;-66
2021/03/16 07:50:40;;;;;;;1.17;0.90;;;18.10;50.70;;;;;;4883414;29;20208;-70
2021/03/16 07:53:06;;;;;;;1.48;0.85;;;18.00;50.80;;;;;;4899008;29;20192;-70
2021/03/16 07:55:31;;;;;;;1.38;0.68;;;18.00;50.80;;;;;;4899155;29;20734;-65
2021/03/16 07:58:13;;;;;;;2.03;0.80;;;18.00;50.90;;;;;;4900715;29;20647;-65
2021/03/16 08:00:38;;;;;;;3.05;1.33;;;17.90;51.00;;;;;;4898521;29;20594;-65
2021/03/16 08:03:08;;;;;;;2.45;0.88;;;18.00;51.10;;;;;;4899367;29;20177;-60
2021/03/16 08:05:46;;;;;;;2.92;1.17;;;18.00;51.40;;;;;;4899230;29;20176;-71
2021/03/16 08:08:16;;;;;;;4.13;1.27;;;18.00;51.50;;;;;;4883498;29;20176;-75
2021/03/16 08:10:42;;;;;;;2.03;1.05;;;18.00;52.00;;;;;;4883194;29;20224;-65
2021/03/16 08:13:12;;;;;;;3.85;1.40;;;18.00;52.00;;;;;;4883703;29;20192;-65
2021/03/16 08:15:41;;;;;;;3.42;1.40;;;17.90;52.70;;;;;;4898444;29;20200;-64
2021/03/16 08:18:07;;;;;;;3.92;1.48;;;17.90;52.20;;;;;;4900194;29;20303;-64
2021/03/16 08:20:33;;;;;;;2.22;1.42;;;17.90;52.30;;;;;;4898315;29;20197;-64
2021/03/16 08:23:12;;;;;;;4.32;1.52;;;17.80;52.60;;;;;;4883455;29;20660;-64
2021/03/16 08:25:38;;;;;;;4.15;1.60;;;17.70;52.50;;;;;;4898743;29;20180;-64
2021/03/16 08:28:07;;;;;;;5.47;1.85;;;17.70;52.60;;;;;;4899476;29;20254;-67
2021/03/16 08:30:34;;;;;;;3.97;1.23;;;17.70;52.70;;;;;;4883373;29;20216;-65
2021/03/16 08:33:07;;;;;;;2.65;1.23;;;17.80;52.70;;;;;;4883193;29;20183;-65
2021/03/16 08:35:33;;;;;;;4.57;1.65;;;17.80;52.70;;;;;;4882304;29;20183;-66
2021/03/16 08:37:58;;;;;;;3.42;1.30;;;17.90;52.60;;;;;;4899986;29;20185;-64
2021/03/16 08:40:24;;;;;;;3.95;1.33;;;17.90;52.50;;;;;;4899644;29;20183;-68
2021/03/16 08:42:49;;;;;;;3.03;1.42;;;17.90;52.50;;;;;;4899238;29;20177;-64
2021/03/16 08:45:15;;;;;;;4.30;1.50;;;17.90;52.40;;;;;;4898691;29;20191;-65
2021/03/16 08:47:41;;;;;;;3.72;1.38;;;18.00;52.30;;;;;;4882907;29;20177;-64
2021/03/16 08:50:07;;;;;;;4.75;1.63;;;17.90;52.40;;;;;;4898602;29;20335;-67
2021/03/16 08:52:32;;;;;;;5.00;1.90;;;17.90;52.40;;;;;;4898174;29;20316;-68
2021/03/16 08:54:59;;;;;;;3.53;1.42;;;17.90;52.40;;;;;;4898411;29;20255;-66
2021/03/16 08:57:26;;;;;;;2.38;1.02;;;17.90;52.00;;;;;;4897527;29;20224;-69
2021/03/16 08:59:52;;;;;;;2.95;1.20;;;17.90;52.00;;;;;;4898529;29;20176;-65
2021/03/16 09:02:22;;;;;;;2.63;1.15;;;17.90;52.00;;;;;;4898415;29;20176;-62
2021/03/16 09:04:48;;;;;;;3.85;1.30;;;17.90;52.00;;;;;;4897632;29;20175;-66
2021/03/16 09:07:24;;;;;;;2.72;1.60;;;17.90;52.20;;;;;;4882474;29;20177;-68
2021/03/16 09:10:10;;;;;;;4.68;1.30;;;17.90;52.30;;;;;;4897422;29;20204;-65
2021/03/16 09:12:37;;;;;;;2.63;1.45;;;17.90;52.40;;;;;;4881625;29;20207;-65
2021/03/16 09:15:15;;;;;;;2.38;1.05;;;17.90;52.50;;;;;;4899141;29;20180;-73
2021/03/16 09:17:42;;;;;;;3.72;1.40;;;17.90;52.60;;;;;;4898307;29;20184;-66
2021/03/16 09:20:09;;;;;;;3.40;1.67;;;17.90;52.80;;;;;;4906389;29;20527;-64
2021/03/16 09:22:34;;;;;;;3.50;1.45;;;18.00;52.70;;;;;;4902007;29;20176;-64
2021/03/16 09:25:00;;;;;;;2.92;1.25;;;18.00;52.70;;;;;;4891168;29;20184;-64
2021/03/16 09:27:26;;;;;;;2.33;1.27;;;18.00;52.60;;;;;;4889977;29;20232;-64
2021/03/16 09:29:51;;;;;;;3.72;1.20;;;18.10;52.60;;;;;;4891433;29;20196;-64
2021/03/16 09:32:17;;;;;;;2.85;1.10;;;18.00;52.50;;;;;;4891240;29;20255;-69
2021/03/16 09:34:46;;;;;;;4.30;1.40;;;18.10;52.60;;;;;;4889660;29;20644;-65
2021/03/16 09:37:13;;;;;;;2.78;1.42;;;18.00;52.50;;;;;;4891218;29;20522;-70
2021/03/16 09:39:39;;;;;;;2.22;1.02;;;18.00;52.50;;;;;;4907505;29;20180;-64
2021/03/16 09:42:05;;;;;;;4.47;1.67;;;18.00;52.60;;;;;;4906661;29;20175;-69
2021/03/16 09:44:47;;;;;;;2.97;1.25;;;18.00;52.60;;;;;;4890990;29;20164;-71
2021/03/16 09:47:23;;;;;;;3.13;1.30;;;18.00;52.60;;;;;;4888814;29;20173;-66
2021/03/16 09:49:49;;;;;;;1.98;0.93;;;18.10;52.70;;;;;;4871138;29;20227;-67
2021/03/16 09:52:14;;;;;;;3.78;1.27;;;18.20;52.60;;;;;;4899753;29;20651;-67
2021/03/16 09:54:46;;;;;;;4.28;1.00;;;18.20;52.50;;;;;;4907806;29;20194;-65
2021/03/16 09:57:13;;;;;;;3.88;1.55;;;18.20;52.40;;;;;;4900519;29;20187;-75
2021/03/16 09:59:45;;;;;;;2.75;0.98;;;18.20;53.00;;;;;;4880795;29;20559;-66
2021/03/16 10:02:11;;;;;;;3.50;1.20;;;18.20;52.30;;;;;;4880801;29;20248;-63
2021/03/16 10:04:49;;;;;;;2.42;0.90;;;18.20;52.50;;;;;;4888211;29;20181;-64
2021/03/16 10:07:28;;;;;;;3.65;1.10;;;18.10;52.50;;;;;;4887462;29;20164;-64
2021/03/16 10:09:54;;;;;;;2.08;1.05;;;18.10;52.60;;;;;;4879462;29;20204;-64
2021/03/16 10:12:21;;;;;;;2.70;1.08;;;18.10;52.70;;;;;;4872974;29;20177;-63
2021/03/16 10:14:50;;;;;;;2.33;1.08;;;18.00;52.70;;;;;;4919308;29;20327;-64
2021/03/16 10:17:23;;;;;;;2.08;1.05;;;18.10;53.50;;;;;;4887806;29;20187;-63
2021/03/16 10:20:06;;;;;;;2.25;0.80;;;18.10;52.90;;;;;;4889025;29;20229;-63
2021/03/16 10:22:33;;;;;;;3.28;1.30;;;18.00;52.80;;;;;;4917786;29;20175;-63
2021/03/16 10:25:09;;;;;;;3.60;1.08;;;18.00;52.90;;;;;;4919472;29;20514;-65
2021/03/16 10:27:34;;;;;;;2.15;1.02;;;18.00;52.80;;;;;;4888177;29;20188;-65
2021/03/16 10:30:05;;;;;;;3.10;0.93;;;18.00;52.90;;;;;;4917935;29;20239;-64
2021/03/16 10:32:30;;;;;;;3.70;1.15;;;18.00;52.90;;;;;;4887515;29;20268;-64
2021/03/16 10:34:56;;;;;;;2.50;1.30;;;18.00;52.80;;;;;;4855351;29;20268;-64
2021/03/16 10:37:23;;;;;;;3.50;0.90;;;18.10;52.80;;;;;;4916647;29;20200;-63
2021/03/16 10:39:48;;;;;;;2.58;1.10;;;18.10;52.80;;;;;;4888404;29;20169;-72
2021/03/16 10:42:14;;;;;;;2.80;1.10;;;18.10;52.90;;;;;;4861808;29;20176;-60
2021/03/16 10:44:40;;;;;;;2.83;1.20;;;18.10;52.80;;;;;;4877656;29;20248;-63
2021/03/16 10:47:06;;;;;;;2.10;0.95;;;18.10;52.70;;;;;;4862425;29;20260;-65
2021/03/16 10:49:32;;;;;;;2.42;1.08;;;18.00;52.70;;;;;;4880304;29;20299;-66
2021/03/16 10:51:58;;;;;;;4.93;1.48;;;18.00;52.80;;;;;;4877685;29;20577;-60
2021/03/16 10:54:24;;;;;;;4.60;1.63;;;18.00;52.80;;;;;;4878517;29;20196;-65
2021/03/16 10:56:51;;;;;;;5.05;1.45;;;18.00;53.30;;;;;;4878267;29;20260;-72
2021/03/16 10:59:17;;;;;;;9.35;2.33;;;18.00;53.20;;;;;;4877784;29;20184;-65
2021/03/16 11:01:42;;;;;;;5.97;1.80;;;18.00;53.10;;;;;;4878664;29;20208;-64
2021/03/16 11:04:08;;;;;;;4.60;1.25;;;18.00;53.10;;;;;;4878150;29;20775;-65
2021/03/16 11:06:33;;;;;;;1.38;0.80;;;18.00;53.10;;;;;;4878554;29;20672;-65
2021/03/16 11:08:59;;;;;;;4.70;1.02;;;18.00;53.80;;;;;;4878646;29;20340;-72
2021/03/16 11:11:24;;;;;;;1.73;1.02;;;18.10;53.20;;;;;;4879401;29;20181;-64
2021/03/16 11:13:50;;;;;;;3.22;1.00;;;18.10;53.20;;;;;;4884557;29;20188;-64
2021/03/16 11:16:16;;;;;;;2.38;1.13;;;18.10;53.20;;;;;;4884422;29;20626;-64
2021/03/16 11:18:41;;;;;;;4.05;1.00;;;18.10;53.20;;;;;;4884717;29;20184;-63
2021/03/16 11:21:07;;;;;;;3.00;1.80;;;18.00;53.10;;;;;;4884836;29;20625;-66
2021/03/16 11:23:32;;;;;;;2.53;1.00;;;18.00;53.10;;;;;;4884078;29;20181;-63
2021/03/16 11:25:58;;;;;;;2.72;0.95;;;18.10;53.20;;;;;;4884945;29;20252;-63
2021/03/16 11:28:23;;;;;;;2.50;1.08;;;18.00;53.10;;;;;;4867891;29;20185;-63
2021/03/16 11:30:49;;;;;;;2.63;1.10;;;18.10;53.10;;;;;;4884015;29;20232;-64
2021/03/16 11:33:14;;;;;;;2.20;0.90;;;18.10;53.10;;;;;;4883625;29;20637;-64
2021/03/16 11:35:40;;;;;;;2.15;1.00;;;18.10;53.20;;;;;;4884658;29;20536;-60
2021/03/16 11:38:06;;;;;;;3.10;1.05;;;18.10;53.20;;;;;;4884130;29;20221;-60
2021/03/16 11:40:31;;;;;;;1.80;0.80;;;18.10;53.10;;;;;;4884648;29;20183;-58
2021/03/16 11:42:57;;;;;;;1.67;0.93;;;18.10;53.00;;;;;;4884703;29;20602;-61
2021/03/16 11:45:23;;;;;;;3.42;1.25;;;18.00;52.80;;;;;;4883693;29;20173;-61
2021/03/16 11:47:48;;;;;;;1.92;0.90;;;18.00;52.80;;;;;;4884626;29;20177;-61
2021/03/16 11:50:14;;;;;;;1.60;0.82;;;18.00;52.80;;;;;;4883813;29;20228;-61
2021/03/16 11:52:40;;;;;;;2.92;1.10;;;18.00;52.70;;;;;;4883570;29;20551;-62
2021/03/16 11:55:06;;;;;;;2.13;0.80;;;18.00;52.70;;;;;;4884477;29;20209;-61
2021/03/16 11:57:32;;;;;;;1.83;0.90;;;18.00;52.70;;;;;;4867768;29;20327;-62
2021/03/16 11:59:57;;;;;;;2.40;1.00;;;17.90;52.70;;;;;;4895978;29;20648;-70
2021/03/16 12:02:24;;;;;;;3.10;0.98;;;17.90;52.80;;;;;;4886270;29;20517;-63
2021/03/16 12:04:50;;;;;;;2.88;1.05;;;17.80;52.80;;;;;;4886760;29;20282;-70
2021/03/16 12:07:16;;;;;;;5.05;1.23;;;17.80;52.80;;;;;;4883535;29;20264;-63
2021/03/16 12:09:42;;;;;;;3.00;0.90;;;17.80;53.00;;;;;;4884184;29;20216;-63
2021/03/16 12:12:08;;;;;;;1.92;0.93;;;17.80;53.00;;;;;;4867808;29;20196;-63
2021/03/16 12:14:34;;;;;;;1.50;0.80;;;17.80;53.00;;;;;;4866781;29;20262;-63
2021/03/16 12:17:00;;;;;;;3.85;1.30;;;17.80;53.10;;;;;;4884460;29;20297;-64
2021/03/16 12:19:27;;;;;;;2.60;0.88;;;17.80;53.10;;;;;;4867577;29;20177;-63
2021/03/16 12:21:53;;;;;;;4.75;1.52;;;17.70;53.20;;;;;;4867700;29;20177;-70
2021/03/16 12:24:18;;;;;;;1.23;0.95;;;17.70;53.20;;;;;;4883433;29;20187;-65
2021/03/16 12:26:44;;;;;;;3.15;0.85;;;17.70;53.20;;;;;;4867755;29;20177;-67
2021/03/16 12:29:10;;;;;;;3.53;0.90;;;17.70;53.30;;;;;;4883248;29;20208;-69
2021/03/16 12:31:35;;;;;;;6.20;1.08;;;17.70;53.10;;;;;;4883128;29;20228;-71
2021/03/16 12:34:01;;;;;;;1.65;0.88;;;17.70;53.10;;;;;;4899460;29;20188;-61
2021/03/16 12:36:27;;;;;;;4.03;1.13;;;17.80;53.10;;;;;;4898094;29;20763;-61
2021/03/16 12:38:52;;;;;;;4.60;1.20;;;17.80;53.00;;;;;;4883347;29;20185;-59
2021/03/16 12:41:18;;;;;;;3.45;1.50;;;17.80;52.90;;;;;;4899207;29;20184;-60
2021/03/16 12:43:44;;;;;;;3.63;1.10;;;18.00;52.60;;;;;;4899400;29;20616;-61
2021/03/16 12:46:09;;;;;;;2.00;1.42;;;18.10;52.40;;;;;;4899556;29;20185;-61
2021/03/16 12:48:35;;;;;;;2.78;1.15;;;18.20;52.30;;;;;;4898974;29;20172;-60